Time;durP1;ratioP1;P1;durP2;ratioP2;P2;SDS_P1;SDS_P2;PMS_P1;PMS_P2;Temp;Humidity;BMP_temperature;BMP_pressure;BME280_temperature;BME280_humidity;BME280_pressure;Samples;Min_cycle;Max_cycle;Signal;HPM_P1;HPM_P2
2023/05/17 00:02:44;;;;;;;5.45;1.40;;;21.70;68.50;;;;;;10496895;28;20415;-23
2023/05/17 00:07:46;;;;;;;5.35;1.17;;;21.30;69.40;;;;;;10492059;28;20086;-24
2023/05/17 00:12:49;;;;;;;8.00;1.70;;;20.90;72.50;;;;;;10509123;28;20099;-24
2023/05/17 00:17:51;;;;;;;8.93;1.67;;;21.10;70.50;;;;;;10494763;28;20139;-24
2023/05/17 00:22:53;;;;;;;7.35;1.98;;;20.30;73.40;;;;;;10493889;28;20067;-24
2023/05/17 00:27:56;;;;;;;3.42;1.15;;;19.00;85.50;;;;;;10493796;28;20560;-24
2023/05/17 00:32:58;;;;;;;4.30;1.55;;;21.10;66.40;;;;;;10491447;28;20118;-24
2023/05/17 00:38:00;;;;;;;6.35;1.83;;;21.00;72.10;;;;;;10491396;28;20076;-24
2023/05/17 00:43:03;;;;;;;4.15;1.60;;;21.40;68.80;;;;;;10497341;28;20111;-25
2023/05/17 00:48:05;;;;;;;6.47;2.13;;;21.00;72.60;;;;;;10490623;28;20069;-26
2023/05/17 00:53:08;;;;;;;10.15;2.28;;;19.50;77.90;;;;;;10495743;28;20064;-24
2023/05/17 00:58:12;;;;;;;5.55;1.58;;;19.80;79.10;;;;;;10494370;28;20047;-24
2023/05/17 01:03:15;;;;;;;3.42;1.30;;;20.40;76.40;;;;;;10487631;28;20090;-23
2023/05/17 01:08:17;;;;;;;2.47;1.23;;;21.40;70.20;;;;;;10491141;28;20079;-24
2023/05/17 01:13:26;;;;;;;5.78;1.83;;;21.50;67.40;;;;;;10485717;28;20132;-24
2023/05/17 01:18:33;;;;;;;5.07;1.67;;;20.90;68.20;;;;;;10485460;28;20087;-24
2023/05/17 01:23:45;;;;;;;3.60;1.27;;;21.50;67.60;;;;;;10481429;28;20052;-26
2023/05/17 01:28:52;;;;;;;6.90;2.10;;;21.20;69.60;;;;;;10490175;28;20552;-24
2023/05/17 01:33:56;;;;;;;7.20;1.77;;;18.90;87.00;;;;;;10491726;28;20055;-25
2023/05/17 01:38:59;;;;;;;5.60;1.85;;;19.50;84.40;;;;;;10481530;28;20055;-25
2023/05/17 01:44:07;;;;;;;6.53;2.13;;;19.40;83.60;;;;;;10486215;28;20044;-24
2023/05/17 01:49:15;;;;;;;3.95;1.73;;;18.00;85.50;;;;;;10495133;28;20056;-25
2023/05/17 01:54:22;;;;;;;8.05;2.28;;;17.70;86.20;;;;;;10501374;28;20068;-24
2023/05/17 01:59:26;;;;;;;4.95;1.67;;;18.80;88.10;;;;;;10500271;28;20049;-23
2023/05/17 02:04:30;;;;;;;4.18;1.35;;;18.60;86.60;;;;;;10483576;28;20628;-24
2023/05/17 02:09:32;;;;;;;3.75;1.60;;;19.00;74.90;;;;;;10490454;28;20072;-24
2023/05/17 02:14:35;;;;;;;3.42;1.23;;;18.10;92.10;;;;;;10511683;28;20060;-26
2023/05/17 02:19:37;;;;;;;5.25;1.67;;;20.60;73.80;;;;;;10493586;28;20075;-25
2023/05/17 02:24:38;;;;;;;10.45;2.35;;;19.90;75.60;;;;;;10500471;28;20047;-25
2023/05/17 02:29:42;;;;;;;4.70;1.52;;;18.50;82.00;;;;;;10501944;28;20098;-26
2023/05/17 02:34:43;;;;;;;4.68;1.60;;;18.40;87.80;;;;;;10494592;28;20048;-25
2023/05/17 02:39:45;;;;;;;4.82;1.65;;;18.70;88.80;;;;;;10490532;28;20519;-24
2023/05/17 02:44:51;;;;;;;4.05;1.45;;;20.20;71.80;;;;;;10480869;28;20044;-24
2023/05/17 02:49:53;;;;;;;5.28;1.55;;;19.70;78.60;;;;;;10489606;28;20044;-24
2023/05/17 02:54:55;;;;;;;5.15;2.00;;;18.80;73.70;;;;;;10501866;28;20052;-24
2023/05/17 03:15:30;;;;;;;7.38;2.95;;;20.10;67.00;;;;;;10518691;27;20118;-23
2023/05/17 03:20:32;;;;;;;4.10;1.45;;;19.40;76.30;;;;;;10529912;28;20541;-23
2023/05/17 03:25:34;;;;;;;4.68;2.10;;;20.20;73.30;;;;;;10514165;28;20113;-23
2023/05/17 03:30:37;;;;;;;4.47;1.70;;;20.40;71.40;;;;;;10522502;28;20048;-23
2023/05/17 03:35:39;;;;;;;3.40;1.73;;;18.80;77.40;;;;;;10525387;28;20102;-22
2023/05/17 03:40:41;;;;;;;6.63;1.73;;;18.20;90.10;;;;;;10527976;28;20052;-24
2023/05/17 03:45:45;;;;;;;10.30;2.50;;;17.10;89.30;;;;;;10525349;28;20075;-22
2023/05/17 03:50:46;;;;;;;3.97;1.80;;;17.50;81.60;;;;;;10534102;28;20075;-22
2023/05/17 03:55:48;;;;;;;5.53;1.65;;;18.70;73.00;;;;;;10521786;28;20040;-23
2023/05/17 04:00:51;;;;;;;3.95;1.80;;;19.50;77.10;;;;;;10523730;28;20101;-24
2023/05/17 04:05:53;;;;;;;4.18;1.67;;;19.60;74.20;;;;;;10540464;28;20127;-23
2023/05/17 04:10:55;;;;;;;2.70;1.25;;;19.80;74.90;;;;;;10528410;28;20075;-23
2023/05/17 04:15:58;;;;;;;5.72;1.75;;;20.40;71.50;;;;;;10522593;28;20097;-23
2023/05/17 04:21:00;;;;;;;2.95;1.52;;;19.80;73.20;;;;;;10518837;28;20052;-23
2023/05/17 04:26:03;;;;;;;4.18;1.60;;;20.40;71.00;;;;;;10502800;28;20044;-23
2023/05/17 04:31:08;;;;;;;3.38;1.20;;;20.50;71.00;;;;;;10484923;28;20041;-24
2023/05/17 04:36:10;;;;;;;3.88;1.73;;;20.20;71.20;;;;;;10495465;28;20393;-25
2023/05/17 04:41:12;;;;;;;3.97;1.45;;;20.30;70.90;;;;;;10495780;28;20051;-24
2023/05/17 04:46:15;;;;;;;5.38;1.45;;;20.40;71.00;;;;;;10496722;28;20135;-24
2023/05/17 04:51:17;;;;;;;3.25;1.58;;;20.60;69.20;;;;;;10491610;28;20044;-23
2023/05/17 04:56:19;;;;;;;4.05;1.63;;;20.90;67.60;;;;;;10494628;28;20128;-24
2023/05/17 05:01:22;;;;;;;2.78;1.20;;;20.30;69.70;;;;;;10491702;28;20052;-24
2023/05/17 05:06:24;;;;;;;5.57;1.42;;;20.60;67.90;;;;;;10491346;28;20095;-25
2023/05/17 05:11:26;;;;;;;4.40;1.67;;;20.90;67.50;;;;;;10494450;28;20137;-24
2023/05/17 05:16:29;;;;;;;6.55;1.67;;;20.60;67.90;;;;;;10487840;28;20075;-23
2023/05/17 05:21:31;;;;;;;3.25;1.48;;;20.40;68.80;;;;;;10492892;28;20048;-24
2023/05/17 05:26:33;;;;;;;4.07;1.30;;;19.80;74.80;;;;;;10492225;28;20052;-23
2023/05/17 05:31:36;;;;;;;4.45;1.42;;;20.90;66.40;;;;;;10490269;28;20140;-24
2023/05/17 05:36:38;;;;;;;5.95;1.42;;;20.80;64.70;;;;;;10477292;28;20040;-24
2023/05/17 05:41:40;;;;;;;5.32;1.10;;;20.20;67.90;;;;;;10496200;28;20044;-24
2023/05/17 05:46:43;;;;;;;2.58;1.42;;;21.00;66.60;;;;;;10488363;28;20048;-24
2023/05/17 05:51:45;;;;;;;4.63;1.60;;;20.10;71.60;;;;;;10484205;28;20102;-23
2023/05/17 05:56:47;;;;;;;7.55;1.83;;;20.70;67.80;;;;;;10504159;28;20048;-24
2023/05/17 06:01:50;;;;;;;16.85;2.20;;;20.40;62.50;;;;;;10495215;28;20048;-24
2023/05/17 06:06:54;;;;;;;2.60;0.93;;;19.60;58.40;;;;;;10483148;28;20052;-23
2023/05/17 06:11:56;;;;;;;5.20;1.42;;;20.60;67.60;;;;;;10493379;28;20147;-23
2023/05/17 06:16:59;;;;;;;9.75;1.58;;;20.10;69.80;;;;;;10491603;28;20048;-26
2023/05/17 06:22:01;;;;;;;5.53;1.40;;;19.10;72.30;;;;;;10490006;28;20044;-24
2023/05/17 06:27:03;;;;;;;8.10;1.52;;;20.70;68.30;;;;;;10499334;28;20040;-24
2023/05/17 06:32:07;;;;;;;7.57;1.25;;;20.20;69.60;;;;;;10488423;28;20044;-24
2023/05/17 06:37:08;;;;;;;5.03;1.55;;;20.60;67.90;;;;;;10505159;28;20087;-24
2023/05/17 06:42:10;;;;;;;3.92;1.10;;;20.50;69.10;;;;;;10500906;28;20048;-24
2023/05/17 06:47:14;;;;;;;6.72;1.40;;;21.00;66.40;;;;;;10477687;28;20048;-23
2023/05/17 06:52:15;;;;;;;10.52;3.28;;;20.70;64.20;;;;;;10485517;28;20048;-23
2023/05/17 06:57:17;;;;;;;6.63;1.40;;;18.60;61.40;;;;;;10501475;28;20048;-23
2023/05/17 07:02:21;;;;;;;6.80;1.08;;;20.00;69.90;;;;;;10480391;28;20068;-24
2023/05/17 07:07:22;;;;;;;4.75;1.27;;;19.10;69.60;;;;;;10471763;28;20064;-24
2023/05/17 07:12:24;;;;;;;7.32;1.30;;;20.50;69.20;;;;;;10477881;28;20572;-24
2023/05/17 07:17:28;;;;;;;7.95;1.73;;;21.10;65.80;;;;;;10487518;28;20072;-24
2023/05/17 07:22:30;;;;;;;4.25;1.30;;;21.10;65.40;;;;;;10488889;28;20072;-24
2023/05/17 07:27:32;;;;;;;7.43;1.83;;;20.90;66.60;;;;;;10488538;28;20466;-24
2023/05/17 07:32:35;;;;;;;4.07;1.48;;;20.80;64.00;;;;;;10484433;28;20481;-24
2023/05/17 07:37:37;;;;;;;7.55;1.52;;;20.90;66.00;;;;;;10488177;28;20044;-22
2023/05/17 07:42:38;;;;;;;7.30;1.92;;;20.90;65.30;;;;;;10476015;28;20147;-24
2023/05/17 07:47:42;;;;;;;11.52;2.13;;;21.00;65.00;;;;;;10483589;28;20036;-22
2023/05/17 07:52:43;;;;;;;6.57;1.70;;;19.90;65.70;;;;;;10479046;28;20674;-25
2023/05/17 07:57:47;;;;;;;5.65;1.25;;;18.60;76.40;;;;;;10483700;28;20076;-25
2023/05/17 08:02:50;;;;;;;5.43;1.33;;;20.80;65.10;;;;;;10495139;28;20075;-24
2023/05/17 08:07:52;;;;;;;7.47;1.20;;;21.30;62.70;;;;;;10495100;28;20072;-24
2023/05/17 08:12:54;;;;;;;5.50;1.88;;;21.00;63.30;;;;;;10495681;28;20059;-26
2023/05/17 08:17:58;;;;;;;8.00;1.65;;;21.00;61.60;;;;;;10494587;28;20277;-24
2023/05/17 08:23:00;;;;;;;7.43;1.40;;;20.40;57.50;;;;;;10495092;28;20086;-24
2023/05/17 08:28:03;;;;;;;5.63;1.65;;;20.90;60.90;;;;;;10508576;28;20052;-24
2023/05/17 08:33:09;;;;;;;5.43;1.48;;;19.80;69.80;;;;;;10493148;28;20456;-24
2023/05/17 08:38:12;;;;;;;5.88;1.30;;;20.30;63.40;;;;;;10502931;28;20104;-23
2023/05/17 08:43:15;;;;;;;6.20;1.50;;;20.90;62.10;;;;;;10496786;28;20041;-24
2023/05/17 08:48:18;;;;;;;8.07;1.08;;;20.50;64.10;;;;;;10497480;28;20052;-24
2023/05/17 08:53:20;;;;;;;4.97;1.30;;;21.60;60.10;;;;;;10494239;28;20464;-24
2023/05/17 08:58:27;;;;;;;3.38;0.93;;;21.30;60.40;;;;;;10497354;28;20037;-24
2023/05/17 09:03:34;;;;;;;9.27;2.42;;;21.50;59.40;;;;;;10494897;28;20040;-25
2023/05/17 09:08:37;;;;;;;5.18;1.00;;;21.40;59.40;;;;;;10495382;28;20131;-24
2023/05/17 09:13:39;;;;;;;6.63;1.27;;;21.00;57.30;;;;;;10493162;28;20458;-23
2023/05/17 09:18:42;;;;;;;4.75;1.35;;;21.10;60.10;;;;;;10488725;28;20084;-24
2023/05/17 09:23:46;;;;;;;4.80;1.25;;;20.10;66.00;;;;;;10495941;28;20072;-23
2023/05/17 09:28:48;;;;;;;3.53;0.90;;;19.60;67.90;;;;;;10477089;28;20099;-24
2023/05/17 09:33:51;;;;;;;3.78;1.10;;;21.30;60.10;;;;;;10487670;28;20049;-24
2023/05/17 09:38:55;;;;;;;9.93;1.27;;;21.30;60.20;;;;;;10488424;28;20043;-24
2023/05/17 09:43:59;;;;;;;7.47;1.30;;;20.60;54.40;;;;;;10490096;28;20420;-24
2023/05/17 09:49:03;;;;;;;5.95;1.08;;;19.50;59.30;;;;;;10490124;28;20135;-23
2023/05/17 09:54:06;;;;;;;6.10;1.05;;;21.20;59.60;;;;;;10492039;28;20594;-22
2023/05/17 09:59:11;;;;;;;3.05;0.80;;;21.50;58.00;;;;;;10492856;28;20056;-24
2023/05/17 10:04:19;;;;;;;3.95;0.88;;;21.20;59.30;;;;;;10491007;28;20386;-24
2023/05/17 10:09:22;;;;;;;2.42;0.98;;;21.80;58.80;;;;;;10489419;28;20421;-24
2023/05/17 10:14:31;;;;;;;3.30;0.90;;;22.00;57.30;;;;;;10502514;28;20492;-24
2023/05/17 10:19:35;;;;;;;5.95;1.17;;;20.40;63.10;;;;;;10489350;28;20547;-24
2023/05/17 10:24:40;;;;;;;4.50;0.88;;;21.60;58.40;;;;;;10489208;28;20472;-24
2023/05/17 10:29:43;;;;;;;2.92;1.10;;;21.30;57.10;;;;;;10492049;28;20048;-24
2023/05/17 10:34:49;;;;;;;7.45;1.00;;;21.70;57.60;;;;;;10493723;28;20102;-24
2023/05/17 10:39:51;;;;;;;4.00;1.23;;;21.00;58.50;;;;;;10498163;28;20554;-24
2023/05/17 10:44:54;;;;;;;6.93;0.95;;;21.20;58.10;;;;;;10490458;28;20539;-24
2023/05/17 10:49:57;;;;;;;4.32;1.42;;;20.60;59.20;;;;;;10483025;28;20054;-24
2023/05/17 10:54:59;;;;;;;4.32;1.00;;;21.10;56.70;;;;;;10488536;28;20094;-23
2023/05/17 11:00:06;;;;;;;6.82;0.80;;;22.10;55.80;;;;;;10482732;28;20073;-22
2023/05/17 11:05:23;;;;;;;3.35;0.80;;;20.30;61.50;;;;;;10482491;28;20094;-24
2023/05/17 11:10:25;;;;;;;9.63;1.52;;;22.00;57.50;;;;;;10484790;28;20051;-24
2023/05/17 11:15:27;;;;;;;8.07;1.63;;;21.00;57.50;;;;;;10482623;28;20058;-24
2023/05/17 11:20:36;;;;;;;2.80;0.88;;;19.40;49.10;;;;;;10491116;28;20512;-23
2023/05/17 11:25:39;;;;;;;1.48;0.55;;;21.10;61.30;;;;;;10489475;28;20072;-24
2023/05/17 11:30:46;;;;;;;2.70;0.90;;;21.20;60.20;;;;;;10477722;28;20091;-24
2023/05/17 11:35:54;;;;;;;9.93;1.00;;;20.50;61.60;;;;;;10493007;28;20044;-27
2023/05/17 11:40:57;;;;;;;3.28;0.80;;;20.80;55.80;;;;;;10490187;28;20061;-24
2023/05/17 11:46:00;;;;;;;5.55;0.93;;;21.70;58.20;;;;;;10497650;28;20122;-24
2023/05/17 11:51:04;;;;;;;4.80;1.08;;;20.90;56.50;;;;;;10494809;28;20051;-24
2023/05/17 11:56:07;;;;;;;5.95;0.93;;;21.50;57.80;;;;;;10502618;28;20065;-23
2023/05/17 12:01:09;;;;;;;4.53;1.10;;;21.70;57.70;;;;;;10499957;28;20036;-24
2023/05/17 12:06:16;;;;;;;4.50;0.95;;;21.70;56.70;;;;;;10497797;28;20051;-24
2023/05/17 12:11:20;;;;;;;8.75;1.17;;;22.00;56.00;;;;;;10492743;28;20477;-23
2023/05/17 12:16:23;;;;;;;8.05;1.00;;;20.80;59.20;;;;;;10486675;28;20049;-24
2023/05/17 12:21:26;;;;;;;3.05;1.00;;;21.60;55.30;;;;;;10497591;28;20131;-24
2023/05/17 12:26:28;;;;;;;5.07;0.90;;;22.30;57.00;;;;;;10500138;28;20045;-25
2023/05/17 12:31:33;;;;;;;9.23;1.27;;;22.20;54.70;;;;;;10491230;28;20082;-24
2023/05/17 12:36:38;;;;;;;4.40;0.82;;;22.50;56.50;;;;;;10478547;28;20099;-24
2023/05/17 12:41:41;;;;;;;6.57;1.30;;;22.50;57.20;;;;;;10488875;28;20044;-25
2023/05/17 12:46:43;;;;;;;6.43;1.42;;;21.50;57.60;;;;;;10488011;28;20131;-24
2023/05/17 12:51:47;;;;;;;2.90;0.73;;;20.70;51.50;;;;;;10491698;28;20097;-23
2023/05/17 12:56:50;;;;;;;4.40;0.88;;;22.30;56.20;;;;;;10493186;28;20148;-24
2023/05/17 13:01:54;;;;;;;8.25;1.13;;;22.00;56.90;;;;;;10499552;28;20044;-24
2023/05/17 13:06:59;;;;;;;5.50;0.70;;;22.60;54.20;;;;;;10497085;28;20043;-24
2023/05/17 13:12:04;;;;;;;6.50;1.30;;;22.60;50.10;;;;;;10491833;28;20422;-25
2023/05/17 13:17:08;;;;;;;7.85;1.52;;;22.90;55.50;;;;;;10491894;28;21095;-23
2023/05/17 13:22:11;;;;;;;3.33;0.90;;;22.60;55.60;;;;;;10490313;28;20069;-23
2023/05/17 13:27:13;;;;;;;9.43;1.55;;;22.60;55.20;;;;;;10512659;28;20093;-23
2023/05/17 13:32:15;;;;;;;9.10;1.20;;;23.10;54.50;;;;;;10495376;28;20044;-24
2023/05/17 13:37:19;;;;;;;;;;;23.20;54.50;;;;;;10489692;28;20052;-23
2023/05/17 13:42:22;;;;;;;5.05;1.20;;;22.00;56.30;;;;;;10491584;28;20270;-24
2023/05/17 13:47:23;;;;;;;7.07;1.17;;;23.10;53.50;;;;;;10484435;28;20163;-23
2023/05/17 13:52:27;;;;;;;7.72;1.30;;;23.40;52.50;;;;;;10493988;28;20071;-24
2023/05/17 13:57:29;;;;;;;4.43;1.15;;;23.60;53.40;;;;;;10490836;28;20497;-23
2023/05/17 14:02:30;;;;;;;3.17;1.20;;;22.60;55.80;;;;;;10480887;28;20087;-24
2023/05/17 14:07:34;;;;;;;;;;;23.90;52.90;;;;;;10494482;28;20123;-23
2023/05/17 14:12:36;;;;;;;9.27;1.27;;;23.30;52.10;;;;;;10500569;28;20389;-23
2023/05/17 14:17:37;;;;;;;;;;;23.50;53.80;;;;;;10487418;28;20048;-24
2023/05/17 14:22:40;;;;;;;2.90;1.07;;;23.20;53.40;;;;;;10481234;28;19995;-25
2023/05/17 14:27:42;;;;;;;7.38;1.08;;;23.70;51.10;;;;;;10486725;28;20127;-24
2023/05/17 14:32:44;;;;;;;5.18;1.27;;;24.20;52.60;;;;;;10495951;28;20067;-24
2023/05/17 14:37:47;;;;;;;;;;;22.90;44.30;;;;;;10491307;28;20063;-24
2023/05/17 14:42:49;;;;;;;4.35;0.95;;;23.80;53.60;;;;;;10487996;28;19978;-24
2023/05/17 14:47:51;;;;;;;6.78;0.95;;;24.10;52.40;;;;;;10484065;28;20094;-25
2023/05/17 14:52:55;;;;;;;5.40;1.33;;;24.20;52.40;;;;;;10480036;28;20067;-25
2023/05/17 14:57:57;;;;;;;5.68;1.50;;;21.60;52.10;;;;;;10492090;28;20041;-24
2023/05/17 15:02:59;;;;;;;4.78;1.30;;;23.30;57.00;;;;;;10498021;28;20429;-30
2023/05/17 15:08:02;;;;;;;7.00;1.42;;;23.50;54.30;;;;;;10487336;28;20074;-24
2023/05/17 15:13:04;;;;;;;3.90;1.10;;;22.60;47.90;;;;;;10487740;28;20314;-25
2023/05/17 15:18:06;;;;;;;4.00;0.93;;;24.00;54.50;;;;;;10481446;28;20084;-24
2023/05/17 15:23:09;;;;;;;11.77;1.85;;;24.80;52.50;;;;;;10483113;28;20045;-24
2023/05/17 15:28:11;;;;;;;7.68;1.25;;;24.70;53.10;;;;;;10490347;28;20072;-25
2023/05/17 15:33:12;;;;;;;;;;;24.30;53.00;;;;;;10466633;28;20102;-24
2023/05/17 15:38:15;;;;;;;2.72;0.88;;;24.50;51.30;;;;;;10490984;28;19928;-25
2023/05/17 15:43:17;;;;;;;5.97;1.30;;;24.80;54.60;;;;;;10489751;28;20133;-24
2023/05/17 15:48:21;;;;;;;4.78;1.20;;;25.20;50.40;;;;;;10490922;28;20058;-25
2023/05/17 15:53:25;;;;;;;5.70;1.10;;;25.00;53.30;;;;;;10489449;28;20500;-25
2023/05/17 15:58:27;;;;;;;13.45;1.42;;;24.70;52.90;;;;;;10465812;28;20119;-24
2023/05/17 16:03:29;;;;;;;2.90;1.13;;;25.90;47.60;;;;;;10479173;28;20066;-24
2023/05/17 16:08:32;;;;;;;;;;;25.40;60.20;;;;;;10481421;28;20084;-24
2023/05/17 16:13:34;;;;;;;5.80;1.67;;;25.00;59.00;;;;;;10474284;28;19928;-24
2023/05/17 16:18:36;;;;;;;4.32;1.20;;;25.80;56.30;;;;;;10485747;28;20056;-24
2023/05/17 16:23:39;;;;;;;5.05;1.30;;;26.10;55.70;;;;;;10493565;28;20131;-23
2023/05/17 16:28:41;;;;;;;10.27;1.83;;;25.70;58.10;;;;;;10490631;28;20036;-24
2023/05/17 16:33:43;;;;;;;4.20;1.02;;;26.10;54.80;;;;;;10490354;28;20083;-22
2023/05/17 16:38:46;;;;;;;4.80;1.00;;;26.10;56.60;;;;;;10491096;28;20066;-23
2023/05/17 16:43:48;;;;;;;9.82;1.80;;;26.40;55.50;;;;;;10486757;28;20056;-24
2023/05/17 16:48:51;;;;;;;7.28;2.17;;;26.90;57.20;;;;;;10492100;28;20079;-26
2023/05/17 16:53:54;;;;;;;10.50;2.00;;;26.50;67.80;;;;;;10492969;28;20056;-24
2023/05/17 16:58:56;;;;;;;4.68;2.20;;;26.30;62.60;;;;;;10493511;28;20109;-24
2023/05/17 17:03:58;;;;;;;10.05;3.45;;;25.20;85.20;;;;;;10489409;28;20072;-24
2023/05/17 17:09:03;;;;;;;7.68;2.22;;;26.80;74.80;;;;;;10490245;28;20041;-24
2023/05/17 17:14:05;;;;;;;6.55;2.92;;;27.20;61.50;;;;;;10498290;28;20056;-25
2023/05/17 17:19:07;;;;;;;8.48;3.25;;;27.00;78.50;;;;;;10486749;28;20045;-23
2023/05/17 17:24:12;;;;;;;10.70;2.95;;;27.40;64.30;;;;;;10493481;28;20055;-25
2023/05/17 17:29:15;;;;;;;10.70;1.88;;;27.70;60.30;;;;;;10490081;28;20045;-22
2023/05/17 17:34:17;;;;;;;15.60;3.22;;;27.20;51.30;;;;;;10483690;28;20521;-23
2023/05/17 17:39:20;;;;;;;6.65;2.28;;;27.30;66.00;;;;;;10490294;28;20067;-22
2023/05/17 17:44:22;;;;;;;7.45;2.63;;;27.70;64.00;;;;;;10480213;28;20072;-23
2023/05/17 17:49:23;;;;;;;6.10;2.40;;;27.70;61.50;;;;;;10492580;28;20052;-24
2023/05/17 17:54:27;;;;;;;11.55;2.78;;;27.70;60.50;;;;;;10491547;28;20759;-22
2023/05/17 17:59:29;;;;;;;4.50;1.80;;;27.40;69.00;;;;;;10495706;28;20072;-23
2023/05/17 18:04:30;;;;;;;9.50;2.13;;;27.70;61.90;;;;;;10489034;28;20151;-24
2023/05/17 18:09:34;;;;;;;6.07;1.60;;;27.70;64.70;;;;;;10486163;28;20143;-25
2023/05/17 18:14:36;;;;;;;4.70;1.42;;;27.60;59.70;;;;;;10496599;28;20071;-22
2023/05/17 18:19:38;;;;;;;5.38;2.10;;;27.60;59.10;;;;;;10492646;28;20516;-24
2023/05/17 18:24:41;;;;;;;6.30;2.33;;;27.70;58.80;;;;;;10484536;28;20484;-24
2023/05/17 18:29:43;;;;;;;6.72;1.92;;;27.70;59.50;;;;;;10489340;28;20504;-25
2023/05/17 18:34:45;;;;;;;5.95;1.98;;;27.60;61.50;;;;;;10488874;28;20541;-24
2023/05/17 18:39:48;;;;;;;7.05;2.30;;;27.60;59.60;;;;;;10485592;28;20043;-24
2023/05/17 18:44:50;;;;;;;3.90;2.30;;;27.50;58.60;;;;;;10481814;28;20105;-23
2023/05/17 18:49:52;;;;;;;6.15;2.95;;;27.40;58.30;;;;;;10498462;28;20136;-23
2023/05/17 18:54:55;;;;;;;5.38;2.38;;;27.30;58.60;;;;;;10487581;28;20076;-23
2023/05/17 18:59:56;;;;;;;5.68;2.30;;;27.00;56.80;;;;;;10489415;28;20072;-23
2023/05/17 19:04:58;;;;;;;3.80;2.08;;;27.00;57.80;;;;;;10486393;28;20049;-23
2023/05/17 19:10:03;;;;;;;4.35;2.53;;;27.10;57.30;;;;;;10487717;28;20473;-23
2023/05/17 19:15:05;;;;;;;4.40;2.05;;;26.70;59.30;;;;;;10491937;28;20079;-22
2023/05/17 19:20:08;;;;;;;6.45;2.15;;;27.00;60.40;;;;;;10488745;28;20084;-22
2023/05/17 19:25:12;;;;;;;4.28;2.28;;;26.80;60.80;;;;;;10474816;28;20476;-24
2023/05/17 19:30:14;;;;;;;4.35;2.28;;;26.90;60.90;;;;;;10493377;28;20045;-23
2023/05/17 19:35:15;;;;;;;5.43;2.75;;;26.90;60.80;;;;;;10493649;28;20567;-23
2023/05/17 19:40:21;;;;;;;9.40;3.63;;;26.70;61.60;;;;;;10487722;28;20094;-24
2023/05/17 19:45:24;;;;;;;4.80;2.25;;;26.50;61.60;;;;;;10486241;28;20044;-24
2023/05/17 19:50:26;;;;;;;5.05;2.92;;;26.50;61.40;;;;;;10495484;28;20139;-24
2023/05/17 19:55:29;;;;;;;4.53;2.30;;;26.40;60.00;;;;;;10490466;28;20076;-24
2023/05/17 20:00:32;;;;;;;4.80;2.22;;;26.20;59.90;;;;;;10495302;28;20152;-24
2023/05/17 20:05:33;;;;;;;4.80;2.70;;;26.20;59.70;;;;;;10479388;28;20041;-23
2023/05/17 20:10:37;;;;;;;4.30;1.95;;;26.10;59.30;;;;;;10490063;28;20045;-24
2023/05/17 20:15:39;;;;;;;3.72;1.95;;;26.10;59.40;;;;;;10501435;28;20052;-24
2023/05/17 20:20:41;;;;;;;4.82;2.45;;;26.00;58.10;;;;;;10489607;28;20099;-24
2023/05/17 20:25:44;;;;;;;4.00;2.08;;;25.90;59.40;;;;;;10501068;28;20458;-25
2023/05/17 20:30:46;;;;;;;4.45;2.25;;;25.80;59.40;;;;;;10493913;28;20044;-23
2023/05/17 20:35:48;;;;;;;4.65;2.33;;;25.70;59.40;;;;;;10490472;28;20692;-22
2023/05/17 20:40:52;;;;;;;4.22;2.20;;;25.60;59.20;;;;;;10495496;28;20063;-26
2023/05/17 20:45:54;;;;;;;3.17;1.88;;;25.60;59.50;;;;;;10492727;28;20051;-25
2023/05/17 20:50:56;;;;;;;3.38;1.60;;;25.50;59.20;;;;;;10479843;28;20123;-23
2023/05/17 20:55:59;;;;;;;2.97;1.70;;;25.40;59.40;;;;;;10501655;28;20056;-23
2023/05/17 21:01:01;;;;;;;3.38;1.80;;;25.30;59.30;;;;;;10488771;28;20134;-23
2023/05/17 21:06:04;;;;;;;6.72;3.15;;;25.30;59.40;;;;;;10490241;28;20135;-24
2023/05/17 21:11:07;;;;;;;4.70;2.38;;;25.20;60.10;;;;;;10486186;28;20056;-24
2023/05/17 21:16:08;;;;;;;5.07;2.13;;;25.10;59.40;;;;;;10482603;28;20417;-23
2023/05/17 21:21:11;;;;;;;;;;;25.00;59.60;;;;;;10491372;28;20048;-25
2023/05/17 21:26:14;;;;;;;4.97;2.50;;;25.00;59.50;;;;;;10496788;28;19959;-24
2023/05/17 21:31:16;;;;;;;3.28;1.88;;;24.90;59.50;;;;;;10493629;28;20420;-22
2023/05/17 21:36:17;;;;;;;3.97;2.10;;;24.80;59.40;;;;;;10489080;28;20049;-23
2023/05/17 21:41:21;;;;;;;5.07;2.35;;;24.70;59.50;;;;;;10482961;28;20147;-25
2023/05/17 21:46:22;;;;;;;3.33;1.88;;;24.70;59.60;;;;;;10464255;28;20520;-24
2023/05/17 21:51:24;;;;;;;;;;;24.60;60.10;;;;;;10485459;28;20049;-24
2023/05/17 21:56:29;;;;;;;4.68;2.20;;;24.50;59.70;;;;;;10487407;28;19960;-23
2023/05/17 22:01:31;;;;;;;4.18;2.45;;;24.40;58.90;;;;;;10489820;28;20564;-23
2023/05/17 22:06:32;;;;;;;;;;;24.40;59.40;;;;;;10487128;28;20044;-23
2023/05/17 22:11:37;;;;;;;4.57;2.20;;;24.30;59.00;;;;;;10490119;28;20353;-23
2023/05/17 22:16:39;;;;;;;7.07;2.30;;;24.20;59.40;;;;;;10490653;28;20172;-21
2023/05/17 22:21:41;;;;;;;;;;;24.10;59.50;;;;;;10485798;28;20070;-23
2023/05/17 22:26:44;;;;;;;2.80;1.65;;;24.10;59.70;;;;;;10505893;28;19920;-23
2023/05/17 22:31:48;;;;;;;4.70;2.40;;;24.00;59.40;;;;;;10489247;28;20101;-23
2023/05/17 22:36:50;;;;;;;4.22;2.15;;;23.90;59.30;;;;;;10487223;28;20048;-25
2023/05/17 22:41:53;;;;;;;;;;;23.90;59.50;;;;;;10481864;28;20127;-24
2023/05/17 22:46:56;;;;;;;2.13;1.70;;;23.70;59.40;;;;;;10483480;28;19951;-24
2023/05/17 22:52:04;;;;;;;4.43;2.05;;;23.70;58.70;;;;;;10486852;28;20048;-23
2023/05/17 22:57:08;;;;;;;4.07;1.83;;;23.60;59.30;;;;;;10484058;28;20143;-23
2023/05/17 23:02:11;;;;;;;4.28;1.83;;;23.50;59.30;;;;;;10483715;28;20169;-24
2023/05/17 23:07:13;;;;;;;4.63;1.70;;;23.40;58.70;;;;;;10497337;28;20060;-22
2023/05/17 23:12:17;;;;;;;3.47;1.83;;;23.30;59.20;;;;;;10493626;28;20127;-23
2023/05/17 23:17:18;;;;;;;4.38;1.83;;;23.20;59.50;;;;;;10473338;28;20047;-24
2023/05/17 23:22:20;;;;;;;4.50;1.77;;;23.20;59.50;;;;;;10479426;28;20771;-25
2023/05/17 23:27:24;;;;;;;3.95;1.83;;;23.10;58.50;;;;;;10475698;28;20057;-25
2023/05/17 23:32:26;;;;;;;3.47;1.42;;;22.90;58.30;;;;;;10493919;28;20144;-25
2023/05/17 23:37:28;;;;;;;2.13;1.50;;;22.80;58.50;;;;;;10496399;28;20045;-25
2023/05/17 23:42:31;;;;;;;3.17;1.55;;;22.80;58.90;;;;;;10492567;28;20041;-25
2023/05/17 23:47:34;;;;;;;3.25;1.83;;;22.70;58.60;;;;;;10490147;28;20436;-24
2023/05/17 23:52:37;;;;;;;3.05;1.52;;;22.70;58.90;;;;;;10501425;28;20068;-25
2023/05/17 23:57:41;;;;;;;4.38;1.73;;;22.60;58.60;;;;;;10490085;28;20075;-24
